Time;durP1;ratioP1;P1;durP2;ratioP2;P2;SDS_P1;SDS_P2;PMS_P1;PMS_P2;Temp;Humidity;BMP_temperature;BMP_pressure;BME280_temperature;BME280_humidity;BME280_pressure;Samples;Min_cycle;Max_cycle;Signal;HPM_P1;HPM_P2
2024/04/21 00:02:07;;;;;;;11.82;2.40;;;3.50;99.90;;;;;;7373205;19;20766;-64
2024/04/21 00:04:33;;;;;;;10.25;2.35;;;3.50;99.90;;;;;;7371926;19;20015;-64
2024/04/21 00:07:01;;;;;;;10.65;2.20;;;3.60;99.90;;;;;;7372396;19;20050;-65
2024/04/21 00:09:28;;;;;;;11.55;2.53;;;3.60;99.90;;;;;;7375076;19;20487;-60
2024/04/21 00:11:54;;;;;;;11.02;2.40;;;3.70;99.90;;;;;;7375926;19;20022;-61
2024/04/21 00:14:20;;;;;;;12.93;2.42;;;3.60;99.90;;;;;;7374705;19;20018;-61
2024/04/21 00:16:46;;;;;;;9.75;2.40;;;3.70;99.90;;;;;;7374370;19;20026;-61
2024/04/21 00:19:21;;;;;;;6.80;1.70;;;3.70;99.90;;;;;;7374641;19;20006;-61
2024/04/21 00:21:47;;;;;;;17.67;2.22;;;3.70;99.90;;;;;;7374195;19;20022;-61
2024/04/21 00:24:13;;;;;;;12.13;1.98;;;3.70;99.90;;;;;;7375666;19;20052;-63
2024/04/21 00:26:40;;;;;;;10.02;2.30;;;3.80;99.90;;;;;;7374496;19;20025;-61
2024/04/21 00:29:07;;;;;;;13.98;2.22;;;3.90;99.90;;;;;;7376898;19;20046;-61
2024/04/21 00:31:33;;;;;;;10.48;2.05;;;3.90;99.90;;;;;;7373839;19;20019;-61
2024/04/21 00:33:59;;;;;;;11.32;2.70;;;3.90;99.90;;;;;;7376478;19;20015;-61
2024/04/21 00:36:25;;;;;;;11.90;2.22;;;3.90;99.90;;;;;;7381384;19;20046;-61
2024/04/21 00:38:51;;;;;;;12.20;2.58;;;3.90;99.90;;;;;;7377427;19;20454;-61
2024/04/21 00:41:18;;;;;;;12.48;3.33;;;4.00;99.90;;;;;;7379953;19;20022;-61
2024/04/21 00:43:44;;;;;;;12.38;3.55;;;4.00;99.90;;;;;;7379899;19;20022;-61
2024/04/21 00:46:10;;;;;;;14.35;2.45;;;4.00;99.90;;;;;;7381804;19;20010;-61
2024/04/21 00:48:37;;;;;;;8.73;2.45;;;4.00;99.90;;;;;;7379129;19;20629;-61
2024/04/21 00:51:06;;;;;;;10.52;1.85;;;4.00;99.90;;;;;;7376788;19;20506;-60
2024/04/21 00:53:33;;;;;;;8.80;2.38;;;4.00;99.90;;;;;;7375776;19;20022;-61
2024/04/21 00:55:59;;;;;;;10.20;2.20;;;4.00;99.90;;;;;;7379564;19;20022;-61
2024/04/21 00:58:25;;;;;;;9.52;2.03;;;3.90;99.90;;;;;;7381252;19;20015;-61
2024/04/21 01:00:52;;;;;;;13.98;2.38;;;3.90;99.90;;;;;;7377623;19;20019;-61
2024/04/21 01:03:18;;;;;;;9.63;2.10;;;3.90;99.90;;;;;;7379330;19;20014;-63
2024/04/21 01:05:44;;;;;;;11.95;2.38;;;3.80;99.90;;;;;;7379018;19;20026;-64
2024/04/21 01:08:12;;;;;;;12.68;2.78;;;3.70;99.90;;;;;;7380445;19;20029;-61
2024/04/21 01:10:38;;;;;;;8.80;2.22;;;3.60;99.90;;;;;;7379102;19;20014;-61
2024/04/21 01:13:11;;;;;;;10.18;2.35;;;3.50;99.90;;;;;;7378391;19;20018;-63
2024/04/21 01:15:37;;;;;;;14.02;2.67;;;3.30;99.90;;;;;;7377578;19;20078;-64
2024/04/21 01:18:05;;;;;;;12.60;2.65;;;3.10;99.90;;;;;;7377642;19;20022;-63
2024/04/21 01:20:34;;;;;;;9.80;2.85;;;2.90;99.90;;;;;;7375048;19;20050;-63
2024/04/21 01:23:00;;;;;;;9.68;2.38;;;2.90;99.90;;;;;;7376430;19;20018;-63
2024/04/21 01:25:26;;;;;;;15.48;2.72;;;2.90;99.90;;;;;;7371369;19;20535;-63
2024/04/21 01:27:55;;;;;;;14.10;2.30;;;2.80;99.90;;;;;;7377990;19;20036;-63
2024/04/21 01:30:21;;;;;;;15.82;2.92;;;2.80;99.90;;;;;;7378519;19;20019;-63
2024/04/21 01:33:07;;;;;;;16.52;2.90;;;2.70;99.90;;;;;;7375637;19;20030;-63
2024/04/21 01:35:34;;;;;;;10.30;2.25;;;2.70;99.90;;;;;;7374837;19;20115;-63
2024/04/21 01:38:01;;;;;;;10.43;2.30;;;2.70;99.90;;;;;;7377562;19;20018;-63
2024/04/21 01:40:27;;;;;;;15.68;2.80;;;2.80;99.90;;;;;;7376161;19;20494;-61
2024/04/21 01:42:53;;;;;;;13.98;3.05;;;2.70;99.90;;;;;;7379420;19;20014;-61
2024/04/21 01:45:20;;;;;;;15.50;2.75;;;2.80;99.90;;;;;;7371436;19;20018;-61
2024/04/21 01:47:46;;;;;;;16.13;2.53;;;2.80;99.90;;;;;;7376861;19;20022;-63
2024/04/21 01:50:12;;;;;;;11.75;2.60;;;2.80;99.90;;;;;;7376911;19;20893;-63
2024/04/21 01:52:38;;;;;;;16.38;2.80;;;2.80;99.90;;;;;;7376500;19;20502;-63
2024/04/21 01:55:04;;;;;;;14.88;2.45;;;2.80;99.90;;;;;;7375000;19;20025;-63
2024/04/21 01:57:31;;;;;;;11.57;2.92;;;2.90;99.90;;;;;;7376118;19;20031;-61
2024/04/21 01:59:57;;;;;;;16.00;2.97;;;2.90;99.90;;;;;;7377385;19;20913;-61
2024/04/21 02:02:23;;;;;;;13.45;2.88;;;3.00;99.90;;;;;;7377520;19;20022;-61
2024/04/21 02:04:50;;;;;;;9.23;2.30;;;3.00;99.90;;;;;;7375032;19;20023;-61
2024/04/21 02:07:16;;;;;;;14.00;2.67;;;3.10;99.90;;;;;;7379718;19;20029;-61
2024/04/21 02:09:42;;;;;;;12.25;2.45;;;3.10;99.90;;;;;;7375425;19;20491;-61
2024/04/21 02:12:09;;;;;;;13.27;2.58;;;3.10;99.90;;;;;;7379164;19;20037;-61
2024/04/21 02:14:35;;;;;;;14.40;3.00;;;3.20;99.90;;;;;;7372672;19;20025;-61
2024/04/21 02:17:01;;;;;;;10.48;2.38;;;3.20;99.90;;;;;;7377341;19;20022;-61
2024/04/21 02:19:28;;;;;;;11.68;2.65;;;3.30;99.90;;;;;;7375920;19;20014;-61
2024/04/21 02:21:54;;;;;;;9.80;2.42;;;3.40;99.90;;;;;;7374820;19;20051;-61
2024/04/21 02:24:23;;;;;;;9.60;3.05;;;3.40;99.90;;;;;;7376189;19;20885;-61
2024/04/21 02:26:49;;;;;;;11.27;2.10;;;3.40;99.90;;;;;;7374552;19;20668;-61
2024/04/21 02:29:16;;;;;;;17.52;2.92;;;3.50;99.90;;;;;;7379259;19;20014;-61
2024/04/21 02:31:42;;;;;;;12.98;2.47;;;3.40;99.90;;;;;;7378753;19;20015;-61
2024/04/21 02:34:08;;;;;;;9.85;3.55;;;3.40;99.90;;;;;;7378586;19;20685;-61
2024/04/21 02:36:35;;;;;;;7.85;2.10;;;3.40;99.90;;;;;;7375854;19;20077;-61
2024/04/21 02:39:01;;;;;;;10.18;2.58;;;3.40;99.90;;;;;;7374956;19;20027;-61
2024/04/21 02:41:27;;;;;;;7.85;2.10;;;3.30;99.90;;;;;;7377543;19;20021;-64
2024/04/21 02:43:56;;;;;;;9.95;2.22;;;3.40;99.90;;;;;;7373305;19;20019;-61
2024/04/21 02:46:22;;;;;;;11.35;2.60;;;3.30;99.90;;;;;;7376551;19;20029;-64
2024/04/21 02:48:48;;;;;;;11.77;2.33;;;3.30;99.90;;;;;;7376252;19;20659;-63
2024/04/21 02:51:14;;;;;;;11.00;2.22;;;3.30;99.90;;;;;;7373295;19;20547;-61
2024/04/21 02:53:41;;;;;;;12.55;2.47;;;3.30;99.90;;;;;;7371545;19;20018;-61
2024/04/21 02:56:17;;;;;;;11.40;2.17;;;3.30;99.90;;;;;;7370310;19;20018;-61
2024/04/21 02:58:44;;;;;;;6.93;2.30;;;3.20;99.90;;;;;;7376628;19;20018;-61
2024/04/21 03:01:30;;;;;;;11.57;2.25;;;3.20;99.90;;;;;;7375620;19;20018;-61
2024/04/21 03:03:57;;;;;;;10.75;2.08;;;3.20;99.90;;;;;;7374190;19;20018;-61
2024/04/21 03:06:23;;;;;;;12.32;2.80;;;3.30;99.90;;;;;;7375091;19;20014;-61
2024/04/21 03:08:49;;;;;;;16.67;2.92;;;3.30;99.90;;;;;;7375312;19;20022;-61
2024/04/21 03:11:15;;;;;;;9.18;3.22;;;3.30;99.90;;;;;;7375816;19;20053;-61
2024/04/21 03:13:42;;;;;;;5.97;1.50;;;3.30;99.90;;;;;;7374526;19;20052;-61
2024/04/21 03:16:28;;;;;;;8.98;2.40;;;3.30;99.90;;;;;;7371887;19;20031;-61
2024/04/21 03:19:14;;;;;;;5.93;2.20;;;3.30;99.90;;;;;;7368822;19;20086;-61
2024/04/21 03:22:01;;;;;;;9.15;1.65;;;3.30;99.90;;;;;;7371216;19;20846;-61
2024/04/21 03:24:47;;;;;;;8.68;2.13;;;3.30;99.90;;;;;;7370854;19;20022;-61
2024/04/21 03:27:33;;;;;;;8.25;2.20;;;3.20;99.90;;;;;;7372971;19;20035;-61
2024/04/21 03:30:20;;;;;;;12.48;2.50;;;3.30;99.90;;;;;;7373791;19;20021;-61
2024/04/21 03:33:06;;;;;;;7.85;2.33;;;3.30;99.90;;;;;;7372257;19;20030;-61
2024/04/21 03:36:09;;;;;;;8.68;1.92;;;3.30;99.90;;;;;;7369608;19;20044;-64
2024/04/21 03:38:55;;;;;;;9.55;2.00;;;3.30;99.90;;;;;;7371157;19;20014;-64
2024/04/21 03:41:41;;;;;;;4.70;1.40;;;3.30;99.90;;;;;;7372489;19;20022;-64
2024/04/21 03:44:28;;;;;;;7.85;2.35;;;3.30;99.90;;;;;;7372757;19;20025;-64
2024/04/21 03:47:14;;;;;;;3.55;1.20;;;3.20;99.90;;;;;;7373602;19;20022;-64
2024/04/21 03:50:00;;;;;;;7.25;1.95;;;3.00;99.90;;;;;;7373150;19;20585;-64
2024/04/21 03:52:46;;;;;;;4.10;1.58;;;3.00;99.90;;;;;;7371680;19;20966;-64
2024/04/21 03:55:33;;;;;;;5.45;1.33;;;2.90;99.90;;;;;;7369414;19;20379;-64
2024/04/21 03:58:19;;;;;;;6.03;1.40;;;2.80;99.90;;;;;;7370872;19;20022;-64
2024/04/21 04:01:05;;;;;;;4.28;1.70;;;2.70;99.90;;;;;;7369301;19;20015;-64
2024/04/21 04:03:51;;;;;;;7.55;1.40;;;2.70;99.90;;;;;;7370556;19;20025;-64
2024/04/21 04:06:37;;;;;;;5.45;1.52;;;2.60;99.90;;;;;;7370075;19;20018;-64
2024/04/21 04:09:23;;;;;;;5.38;1.42;;;2.50;99.90;;;;;;7378927;19;20038;-64
2024/04/21 04:12:09;;;;;;;6.30;2.00;;;2.50;99.90;;;;;;7380062;19;20913;-64
2024/04/21 04:14:56;;;;;;;5.60;1.60;;;2.40;99.90;;;;;;7379930;19;20018;-64
2024/04/21 04:17:42;;;;;;;5.13;1.42;;;2.40;99.90;;;;;;7373149;19;20363;-62
2024/04/21 04:20:28;;;;;;;4.68;1.70;;;2.30;99.90;;;;;;7377395;19;20048;-62
2024/04/21 04:23:14;;;;;;;5.65;1.92;;;2.30;99.90;;;;;;7380594;19;20635;-62
2024/04/21 04:26:00;;;;;;;3.97;1.65;;;2.20;99.90;;;;;;7378205;19;20018;-62
2024/04/21 04:28:46;;;;;;;6.60;2.92;;;2.20;99.90;;;;;;7378467;19;20053;-64
2024/04/21 04:31:33;;;;;;;4.97;1.70;;;2.20;99.90;;;;;;7380005;19;20029;-64
2024/04/21 04:34:00;;;;;;;8.25;2.30;;;2.10;99.90;;;;;;7378995;19;20090;-64
2024/04/21 04:36:26;;;;;;;6.38;2.13;;;2.10;99.90;;;;;;7381186;19;20018;-62
2024/04/21 04:38:52;;;;;;;5.25;2.47;;;2.10;99.90;;;;;;7381546;19;20061;-62
2024/04/21 04:41:38;;;;;;;5.35;2.03;;;2.10;99.90;;;;;;7377901;19;20127;-64
2024/04/21 04:44:25;;;;;;;8.48;2.30;;;2.10;99.90;;;;;;7376727;19;20022;-64
2024/04/21 04:47:11;;;;;;;7.03;2.05;;;2.00;99.90;;;;;;7378583;19;20011;-62
2024/04/21 04:49:37;;;;;;;5.07;2.03;;;2.10;99.90;;;;;;7379813;19;20022;-62
2024/04/21 04:52:23;;;;;;;7.53;2.20;;;2.00;99.90;;;;;;7379728;19;20022;-62
2024/04/21 04:55:10;;;;;;;11.10;2.88;;;2.10;99.90;;;;;;7378939;19;20018;-62
2024/04/21 04:57:36;;;;;;;4.63;2.20;;;2.10;99.90;;;;;;7378036;19;20011;-62
2024/04/21 05:00:02;;;;;;;7.85;2.17;;;2.10;99.90;;;;;;7378299;19;21188;-64
2024/04/21 05:02:30;;;;;;;7.78;2.35;;;2.00;99.90;;;;;;7378745;19;20019;-64
2024/04/21 05:04:56;;;;;;;4.45;2.05;;;2.10;99.90;;;;;;7374494;19;20019;-64
2024/04/21 05:07:22;;;;;;;9.85;1.98;;;2.10;99.90;;;;;;7377875;19;20504;-64
2024/04/21 05:09:48;;;;;;;6.93;2.40;;;2.10;99.90;;;;;;7376271;19;20026;-64
2024/04/21 05:12:14;;;;;;;8.60;2.45;;;2.10;99.90;;;;;;7376933;19;20078;-64
2024/04/21 05:14:42;;;;;;;6.45;2.20;;;2.20;99.90;;;;;;7377730;19;20794;-64
2024/04/21 05:17:08;;;;;;;7.45;1.95;;;2.20;99.90;;;;;;7378356;19;20051;-64
2024/04/21 05:19:34;;;;;;;6.97;2.40;;;2.20;99.90;;;;;;7375382;19;20022;-64
2024/04/21 05:22:01;;;;;;;8.38;2.97;;;2.30;99.90;;;;;;7376151;19;20768;-64
2024/04/21 05:24:28;;;;;;;8.02;2.65;;;2.40;99.90;;;;;;7375364;19;20015;-64
2024/04/21 05:26:54;;;;;;;5.88;2.85;;;2.50;99.90;;;;;;7376674;19;20018;-64
2024/04/21 05:29:21;;;;;;;9.07;3.05;;;2.60;99.90;;;;;;7375234;19;20022;-62
2024/04/21 05:31:48;;;;;;;4.72;2.35;;;2.70;99.90;;;;;;7377501;19;20090;-65
2024/04/21 05:34:16;;;;;;;9.45;2.63;;;2.90;99.90;;;;;;7377757;19;20053;-64
2024/04/21 05:36:43;;;;;;;8.38;2.38;;;2.90;99.90;;;;;;7373984;19;20018;-67
2024/04/21 05:39:15;;;;;;;5.35;2.35;;;3.10;99.90;;;;;;7380348;19;20025;-67
2024/04/21 05:41:42;;;;;;;13.23;2.55;;;3.20;99.90;;;;;;7378223;19;20026;-66
2024/04/21 05:44:08;;;;;;;6.45;2.47;;;3.20;99.90;;;;;;7379373;19;20074;-64
2024/04/21 05:46:34;;;;;;;7.72;2.40;;;3.40;99.90;;;;;;7377527;19;20062;-67
2024/04/21 05:49:00;;;;;;;8.55;2.70;;;3.60;99.90;;;;;;7377443;19;20029;-64
2024/04/21 05:51:27;;;;;;;6.13;2.28;;;3.70;99.90;;;;;;7376957;19;20179;-65
2024/04/21 05:53:53;;;;;;;8.70;2.50;;;3.80;99.90;;;;;;7374011;19;20462;-64
2024/04/21 05:56:19;;;;;;;11.02;2.70;;;3.90;99.90;;;;;;7377677;19;20156;-62
2024/04/21 05:58:45;;;;;;;8.68;2.25;;;4.00;99.90;;;;;;7377194;19;20026;-64
2024/04/21 06:01:12;;;;;;;9.35;2.40;;;4.10;99.90;;;;;;7373591;19;20022;-66
2024/04/21 06:03:38;;;;;;;9.25;2.95;;;4.30;99.90;;;;;;7376596;19;20029;-66
2024/04/21 06:06:06;;;;;;;11.63;2.63;;;4.40;99.90;;;;;;7378419;19;20022;-64
2024/04/21 06:08:32;;;;;;;9.40;2.80;;;4.50;99.90;;;;;;7376661;19;20749;-64
2024/04/21 06:10:58;;;;;;;9.10;2.47;;;4.40;99.90;;;;;;7376985;19;20018;-62
2024/04/21 06:13:28;;;;;;;5.25;2.60;;;4.50;99.90;;;;;;7374693;19;20042;-63
2024/04/21 06:15:54;;;;;;;9.57;3.03;;;4.50;99.90;;;;;;7376217;19;20801;-70
2024/04/21 06:18:20;;;;;;;11.10;2.97;;;4.70;99.90;;;;;;7372469;19;20042;-67
2024/04/21 06:20:46;;;;;;;10.27;3.47;;;4.90;99.90;;;;;;7377892;19;20098;-63
2024/04/21 06:23:12;;;;;;;8.40;2.25;;;5.10;99.90;;;;;;7378332;19;20404;-64
2024/04/21 06:25:39;;;;;;;15.88;9.00;;;5.20;99.90;;;;;;7377677;19;20018;-63
2024/04/21 06:28:06;;;;;;;10.20;4.75;;;5.40;99.90;;;;;;7376250;19;20018;-63
2024/04/21 06:30:32;;;;;;;8.85;3.10;;;5.60;99.90;;;;;;7377357;19;20025;-63
2024/04/21 06:32:59;;;;;;;6.93;2.53;;;5.60;99.90;;;;;;7377434;19;20078;-63
2024/04/21 06:35:25;;;;;;;8.23;3.03;;;5.80;99.90;;;;;;7378537;19;20036;-63
2024/04/21 06:37:51;;;;;;;6.28;2.10;;;6.00;99.90;;;;;;7375607;19;20022;-63
2024/04/21 06:40:17;;;;;;;6.60;3.15;;;6.10;99.90;;;;;;7374878;19;20018;-63
2024/04/21 06:42:44;;;;;;;7.20;3.30;;;6.10;99.90;;;;;;7376415;19;20018;-63
2024/04/21 06:45:10;;;;;;;4.75;1.98;;;6.10;99.90;;;;;;7377100;19;20133;-63
2024/04/21 06:47:36;;;;;;;8.68;4.32;;;6.20;99.90;;;;;;7376190;19;20031;-64
2024/04/21 06:50:03;;;;;;;6.20;2.90;;;6.20;99.90;;;;;;7377356;19;20022;-63
2024/04/21 06:52:30;;;;;;;6.45;3.20;;;6.10;99.90;;;;;;7376562;19;20010;-62
2024/04/21 06:54:56;;;;;;;7.65;3.63;;;6.30;99.90;;;;;;7377001;19;20011;-63
2024/04/21 06:57:22;;;;;;;8.70;4.47;;;6.20;99.90;;;;;;7371281;19;20018;-63
2024/04/21 06:59:49;;;;;;;8.48;5.18;;;6.20;99.90;;;;;;7375286;19;20015;-64
2024/04/21 07:02:15;;;;;;;9.80;3.78;;;6.20;99.90;;;;;;7375555;19;20828;-64
2024/04/21 07:04:41;;;;;;;7.25;3.80;;;6.10;99.90;;;;;;7376874;19;20014;-64
2024/04/21 07:07:07;;;;;;;10.25;5.13;;;6.10;99.90;;;;;;7377270;19;20022;-63
2024/04/21 07:09:39;;;;;;;9.07;4.90;;;6.10;99.90;;;;;;7377535;19;20608;-62
2024/04/21 07:12:06;;;;;;;;;;;6.10;99.90;;;;;;7375045;19;20027;-63
2024/04/21 07:14:32;;;;;;;7.45;3.78;;;6.10;36.70;;;;;;7377598;19;19922;-63
2024/04/21 07:16:58;;;;;;;11.63;7.43;;;6.20;99.90;;;;;;7373472;19;20022;-63
2024/04/21 07:19:25;;;;;;;7.95;4.22;;;6.30;99.90;;;;;;7376540;19;20627;-67
2024/04/21 07:21:57;;;;;;;6.85;3.88;;;6.50;99.90;;;;;;7375640;19;20010;-64
2024/04/21 07:24:24;;;;;;;13.70;6.82;;;6.90;99.90;;;;;;7372695;19;20019;-64
2024/04/21 07:26:50;;;;;;;6.60;3.65;;;7.60;99.90;;;;;;7377128;19;20348;-64
2024/04/21 07:29:18;;;;;;;8.77;5.00;;;8.40;97.80;;;;;;7375719;19;20021;-64
2024/04/21 07:31:44;;;;;;;12.02;6.65;;;8.80;99.90;;;;;;7373934;19;20359;-68
2024/04/21 07:34:11;;;;;;;9.85;6.18;;;8.70;99.90;;;;;;7375239;19;20029;-64
2024/04/21 07:36:37;;;;;;;8.88;4.65;;;8.40;98.90;;;;;;7376609;19;20014;-63
2024/04/21 07:39:04;;;;;;;12.48;9.07;;;8.10;99.90;;;;;;7373644;19;20054;-63
2024/04/21 07:41:30;;;;;;;11.60;6.88;;;8.00;99.90;;;;;;7377003;19;22255;-63
2024/04/21 07:43:56;;;;;;;11.25;6.05;;;7.90;99.90;;;;;;7378349;19;20025;-64
2024/04/21 07:46:23;;;;;;;11.85;8.00;;;8.10;99.90;;;;;;7383291;19;20011;-62
2024/04/21 07:48:49;;;;;;;12.48;7.50;;;8.10;99.90;;;;;;7381345;19;20014;-66
2024/04/21 07:51:15;;;;;;;11.40;6.22;;;8.40;99.90;;;;;;7381954;19;20021;-66
2024/04/21 07:53:42;;;;;;;8.20;4.38;;;8.20;68.90;;;;;;7382285;19;20014;-65
2024/04/21 07:56:11;;;;;;;7.72;4.28;;;8.10;1.00;;;;;;7384275;19;20011;-65
2024/04/21 07:58:38;;;;;;;6.25;3.50;;;8.10;1.00;;;;;;7381077;19;20022;-65
2024/04/21 08:01:08;;;;;;;7.70;5.03;;;8.70;79.50;;;;;;7375343;19;20449;-65
2024/04/21 08:03:36;;;;;;;6.27;3.23;;;8.90;1.00;;;;;;7380326;19;20042;-63
2024/04/21 08:06:02;;;;;;;14.07;7.90;;;9.50;1.00;;;;;;7380705;19;20291;-64
2024/04/21 08:08:29;;;;;;;7.75;4.35;;;10.10;1.00;;;;;;7380521;19;20011;-65
2024/04/21 08:10:59;;;;;;;8.85;4.22;;;10.80;1.00;;;;;;7382700;19;20019;-66
2024/04/21 08:13:25;;;;;;;10.60;5.63;;;11.40;99.90;;;;;;7379953;19;20238;-67
2024/04/21 08:15:52;;;;;;;8.73;4.22;;;11.60;99.90;;;;;;7383908;19;20034;-66
2024/04/21 08:18:21;;;;;;;5.80;2.80;;;11.50;99.90;;;;;;7382480;19;20010;-66
2024/04/21 08:20:47;;;;;;;6.45;2.97;;;11.00;99.90;;;;;;7377903;19;20970;-67
2024/04/21 08:23:13;;;;;;;7.45;2.67;;;10.60;99.90;;;;;;7381609;19;20025;-66
2024/04/21 08:25:40;;;;;;;6.78;3.55;;;10.20;99.90;;;;;;7381389;19;20041;-67
2024/04/21 08:28:06;;;;;;;4.40;2.63;;;9.80;99.90;;;;;;7380522;19;20026;-65
2024/04/21 08:30:32;;;;;;;4.82;2.72;;;10.00;99.90;;;;;;7382762;19;20543;-64
2024/04/21 08:32:58;;;;;;;13.98;7.15;;;10.20;99.90;;;;;;7378777;19;20026;-64
2024/04/21 08:35:25;;;;;;;5.07;2.60;;;10.30;99.90;;;;;;7376574;19;20094;-65
2024/04/21 08:37:52;;;;;;;13.50;7.13;;;10.40;99.90;;;;;;7378344;19;20023;-65
2024/04/21 08:40:19;;;;;;;4.75;2.85;;;10.50;99.90;;;;;;7379781;19;20025;-65
2024/04/21 08:42:47;;;;;;;9.25;5.50;;;10.50;99.90;;;;;;7380279;19;20019;-64
2024/04/21 08:45:19;;;;;;;11.57;8.38;;;10.10;99.90;;;;;;7378408;19;20049;-65
2024/04/21 08:47:46;;;;;;;4.80;2.58;;;9.80;42.00;;;;;;7379195;19;20034;-62
2024/04/21 08:50:13;;;;;;;7.40;4.13;;;9.80;99.90;;;;;;7379196;19;20025;-65
2024/04/21 08:52:40;;;;;;;5.47;3.55;;;9.70;96.20;;;;;;7378584;19;20010;-63
2024/04/21 08:55:07;;;;;;;4.07;2.63;;;10.00;99.90;;;;;;7376715;19;20103;-62
2024/04/21 08:57:34;;;;;;;5.95;4.40;;;10.40;1.00;;;;;;7376225;19;20611;-66
2024/04/21 09:00:03;;;;;;;5.95;3.85;;;10.40;63.30;;;;;;7378728;19;20493;-65
2024/04/21 09:02:29;;;;;;;10.77;7.43;;;10.50;1.00;;;;;;7379752;19;20018;-63
2024/04/21 09:04:56;;;;;;;8.93;7.43;;;10.90;1.00;;;;;;7381108;19;20738;-65
2024/04/21 09:07:25;;;;;;;11.93;9.00;;;10.80;1.00;;;;;;7379204;19;20015;-66
2024/04/21 09:09:53;;;;;;;10.60;8.43;;;11.80;1.00;;;;;;7376609;19;20463;-66
2024/04/21 09:12:20;;;;;;;7.65;5.63;;;12.40;1.00;;;;;;7378124;19;20026;-66
2024/04/21 09:14:46;;;;;;;8.88;6.45;;;12.30;99.90;;;;;;7379062;19;20018;-67
2024/04/21 09:17:12;;;;;;;7.03;4.53;;;13.00;99.90;;;;;;7378703;19;20021;-64
2024/04/21 09:19:38;;;;;;;7.30;5.07;;;13.90;99.90;;;;;;7378938;19;20021;-64
2024/04/21 09:22:08;;;;;;;7.65;5.95;;;14.40;99.90;;;;;;7376543;19;20114;-67
2024/04/21 09:24:34;;;;;;;5.80;3.47;;;15.10;99.90;;;;;;7379863;19;20018;-64
2024/04/21 09:27:00;;;;;;;7.38;4.68;;;15.50;99.90;;;;;;7377575;19;20046;-65
2024/04/21 09:29:26;;;;;;;5.00;3.38;;;15.10;99.90;;;;;;7374714;19;20509;-64
2024/04/21 09:31:54;;;;;;;8.27;6.05;;;14.70;99.90;;;;;;7379916;19;20015;-67
2024/04/21 09:34:20;;;;;;;5.88;2.75;;;14.30;99.90;;;;;;7381269;19;20788;-67
2024/04/21 09:36:48;;;;;;;3.72;2.78;;;13.60;99.90;;;;;;7377500;19;20014;-66
2024/04/21 09:39:15;;;;;;;14.55;11.55;;;13.60;99.90;;;;;;7377663;19;20482;-66
2024/04/21 09:41:50;;;;;;;6.07;4.28;;;13.70;99.90;;;;;;7376790;19;20478;-67
2024/04/21 09:44:17;;;;;;;5.38;4.22;;;13.10;99.90;;;;;;7378625;19;20048;-64
2024/04/21 09:46:46;;;;;;;6.55;4.93;;;13.00;99.90;;;;;;7379514;19;20025;-64
2024/04/21 09:49:16;;;;;;;8.70;7.40;;;13.20;99.90;;;;;;7372657;19;20351;-65
2024/04/21 09:51:44;;;;;;;3.72;2.65;;;13.10;99.90;;;;;;7378160;19;20021;-64
2024/04/21 09:54:11;;;;;;;5.43;3.83;;;14.20;99.90;;;;;;7375815;19;20026;-65
2024/04/21 09:56:44;;;;;;;4.95;3.78;;;14.70;99.90;;;;;;7379527;19;20093;-66
2024/04/21 09:59:11;;;;;;;5.70;3.97;;;14.70;99.90;;;;;;7379641;19;20102;-68
2024/04/21 10:01:40;;;;;;;3.45;2.00;;;15.60;81.90;;;;;;7375446;19;20015;-65
2024/04/21 10:04:17;;;;;;;3.17;2.47;;;16.50;56.90;;;;;;7378898;19;20010;-64
2024/04/21 10:06:46;;;;;;;6.05;4.63;;;16.70;48.60;;;;;;7378138;19;20111;-64
2024/04/21 10:09:16;;;;;;;7.68;4.35;;;16.40;31.00;;;;;;7378768;19;20132;-67
2024/04/21 10:11:42;;;;;;;9.18;7.10;;;16.80;58.20;;;;;;7377375;19;20010;-63
2024/04/21 10:14:09;;;;;;;4.47;3.17;;;17.00;24.70;;;;;;7378589;19;20026;-64
2024/04/21 10:16:39;;;;;;;8.05;5.05;;;16.10;6.00;;;;;;7373360;19;20028;-64
2024/04/21 10:19:08;;;;;;;21.65;19.15;;;16.00;24.10;;;;;;7376854;19;20429;-67
2024/04/21 10:21:37;;;;;;;8.65;7.53;;;15.80;29.60;;;;;;7372510;19;20018;-61
2024/04/21 10:24:05;;;;;;;45.97;41.20;;;16.30;6.40;;;;;;7374215;19;20019;-59
2024/04/21 10:26:31;;;;;;;27.20;23.08;;;16.30;5.40;;;;;;7377173;19;20772;-60
2024/04/21 10:29:11;;;;;;;16.88;15.07;;;15.60;1.00;;;;;;7372404;19;20019;-60
2024/04/21 10:31:37;;;;;;;18.98;16.92;;;14.80;1.00;;;;;;7373417;19;20585;-60
2024/04/21 10:34:05;;;;;;;13.32;10.85;;;14.40;1.00;;;;;;7373952;19;20082;-59
2024/04/21 10:36:45;;;;;;;24.60;21.02;;;13.90;1.60;;;;;;7375126;19;20022;-59
2024/04/21 10:39:25;;;;;;;13.67;10.97;;;13.30;1.00;;;;;;7374316;19;20675;-59
2024/04/21 10:42:02;;;;;;;15.70;13.20;;;13.80;18.50;;;;;;7374470;19;20025;-60
2024/04/21 10:44:28;;;;;;;8.23;6.10;;;13.80;15.20;;;;;;7375270;19;20018;-59
2024/04/21 10:46:55;;;;;;;12.07;8.70;;;13.60;36.90;;;;;;7374088;19;20026;-59
2024/04/21 10:49:21;;;;;;;5.45;4.15;;;13.50;19.50;;;;;;7374295;19;20023;-62
2024/04/21 10:51:50;;;;;;;15.88;14.02;;;13.30;48.30;;;;;;7372167;19;20021;-58
2024/04/21 10:54:16;;;;;;;9.23;7.57;;;13.10;31.70;;;;;;7375920;19;20821;-59
2024/04/21 10:56:43;;;;;;;8.30;6.35;;;12.80;30.40;;;;;;7372512;19;20605;-59
2024/04/21 10:59:09;;;;;;;173.30;131.57;;;12.70;30.60;;;;;;7374954;19;20018;-57
2024/04/21 11:01:36;;;;;;;10.48;8.43;;;12.60;48.60;;;;;;7372695;19;20014;-57
2024/04/21 11:04:03;;;;;;;15.25;10.60;;;13.10;68.60;;;;;;7373258;19;20019;-58
2024/04/21 11:06:32;;;;;;;6.72;5.05;;;13.30;55.50;;;;;;7375119;19;20046;-60
2024/04/21 11:08:59;;;;;;;17.38;12.77;;;13.50;31.50;;;;;;7374207;19;20018;-57
2024/04/21 11:11:27;;;;;;;15.50;11.98;;;13.40;35.10;;;;;;7373020;19;20063;-57
2024/04/21 11:13:53;;;;;;;11.35;9.25;;;13.60;13.20;;;;;;7372457;19;20073;-59
2024/04/21 11:16:20;;;;;;;142.32;118.00;;;13.50;11.70;;;;;;7374541;19;20022;-57
2024/04/21 11:18:46;;;;;;;17.55;13.77;;;13.70;14.00;;;;;;7371502;19;20412;-59
2024/04/21 11:21:13;;;;;;;8.15;5.82;;;13.80;7.30;;;;;;7371741;19;20010;-58
2024/04/21 11:23:42;;;;;;;10.88;7.80;;;13.90;1.00;;;;;;7373826;19;20025;-63
2024/04/21 11:26:09;;;;;;;4.20;2.97;;;13.70;1.00;;;;;;7373086;19;20021;-61
2024/04/21 11:28:36;;;;;;;26.13;22.10;;;14.60;2.40;;;;;;7373128;19;20110;-61
2024/04/21 11:31:04;;;;;;;3.90;2.42;;;15.70;1.00;;;;;;7371401;19;20353;-62
2024/04/21 11:33:34;;;;;;;5.50;3.20;;;16.70;1.00;;;;;;7374299;19;20102;-57
2024/04/21 11:36:02;;;;;;;14.63;11.82;;;17.50;1.00;;;;;;7374733;19;20022;-57
2024/04/21 11:38:31;;;;;;;11.20;9.30;;;18.20;1.00;;;;;;7375464;19;20046;-59
2024/04/21 11:40:58;;;;;;;3.53;2.30;;;17.40;1.00;;;;;;7374766;19;20110;-58
2024/04/21 11:43:29;;;;;;;5.90;3.63;;;17.60;1.00;;;;;;7373478;19;20015;-60
2024/04/21 11:46:02;;;;;;;18.73;15.43;;;17.10;1.00;;;;;;7374281;19;20019;-58
2024/04/21 11:48:34;;;;;;;4.78;2.90;;;16.30;1.00;;;;;;7374198;19;20013;-57
2024/04/21 11:51:01;;;;;;;5.30;3.78;;;15.80;1.00;;;;;;7370519;19;20573;-58
2024/04/21 11:53:28;;;;;;;9.32;5.85;;;15.10;1.00;;;;;;7375709;19;20880;-58
2024/04/21 11:55:54;;;;;;;12.98;9.35;;;14.70;1.00;;;;;;7374259;19;20018;-58
2024/04/21 11:58:20;;;;;;;24.20;19.13;;;14.40;1.00;;;;;;7376963;19;20022;-60
2024/04/21 12:00:46;;;;;;;3.05;2.08;;;14.10;1.00;;;;;;7370639;19;20015;-63
2024/04/21 12:03:13;;;;;;;5.20;3.50;;;13.70;1.00;;;;;;7375681;19;20078;-64
2024/04/21 12:05:40;;;;;;;4.10;2.88;;;13.20;1.00;;;;;;7371853;19;20019;-65
2024/04/21 12:08:06;;;;;;;7.50;5.50;;;12.70;42.00;;;;;;7371374;19;20019;-65
2024/04/21 12:10:33;;;;;;;3.05;1.83;;;12.40;85.80;;;;;;7374157;19;20028;-63
2024/04/21 12:13:00;;;;;;;2.00;1.38;;;12.00;99.90;;;;;;7370324;19;20776;-62
2024/04/21 12:15:26;;;;;;;3.53;1.80;;;12.10;99.90;;;;;;7375145;19;20042;-67
2024/04/21 12:17:53;;;;;;;5.18;2.00;;;12.10;99.90;;;;;;7368358;19;20014;-68
2024/04/21 12:20:19;;;;;;;2.90;2.00;;;12.30;99.90;;;;;;7372001;19;20019;-68
2024/04/21 12:22:49;;;;;;;4.25;2.63;;;12.70;99.90;;;;;;7372411;19;20022;-67
2024/04/21 12:25:16;;;;;;;2.60;1.90;;;13.10;92.70;;;;;;7374419;19;20026;-67
2024/04/21 12:27:43;;;;;;;2.78;2.03;;;13.20;82.90;;;;;;7375180;19;20811;-67
2024/04/21 12:30:12;;;;;;;2.97;2.10;;;13.00;99.90;;;;;;7377947;19;20360;-68
2024/04/21 12:32:38;;;;;;;6.00;3.67;;;12.30;90.20;;;;;;7376999;19;20022;-69
2024/04/21 12:35:07;;;;;;;6.72;2.92;;;11.60;99.90;;;;;;7382125;19;20010;-68
2024/04/21 12:37:34;;;;;;;3.67;2.63;;;10.80;99.90;;;;;;7383432;19;20022;-68
2024/04/21 12:40:00;;;;;;;7.22;3.40;;;10.40;99.90;;;;;;7379234;19;20022;-67
2024/04/21 12:42:30;;;;;;;4.50;3.03;;;10.20;99.90;;;;;;7382572;19;20015;-66
2024/04/21 12:44:56;;;;;;;5.35;3.00;;;10.00;99.90;;;;;;7384298;19;20101;-69
2024/04/21 12:47:22;;;;;;;5.57;3.13;;;9.80;99.90;;;;;;7384356;19;20058;-68
2024/04/21 12:49:48;;;;;;;4.97;3.65;;;10.10;99.90;;;;;;7382166;19;20090;-68
2024/04/21 12:52:15;;;;;;;5.00;2.72;;;11.60;1.00;;;;;;7379791;19;20027;-68
2024/04/21 12:54:41;;;;;;;4.88;2.83;;;13.00;99.90;;;;;;7384993;19;20503;-64
2024/04/21 12:57:07;;;;;;;5.00;2.75;;;13.00;99.90;;;;;;7377276;19;20015;-65
2024/04/21 12:59:34;;;;;;;3.95;2.10;;;12.90;99.90;;;;;;7377991;19;20018;-64
2024/04/21 13:02:00;;;;;;;3.35;2.30;;;12.80;99.90;;;;;;7374004;19;20019;-64